Time;durP1;ratioP1;P1;durP2;ratioP2;P2;SDS_P1;SDS_P2;PMS_P1;PMS_P2;Temp;Humidity;BMP_temperature;BMP_pressure;BME280_temperature;BME280_humidity;BME280_pressure;Samples;Min_cycle;Max_cycle;Signal;HPM_P1;HPM_P2
2022/06/16 00:00:47;;;;;;;;;;;;;;;17.22;60.02;101913.94;5056403;28;19909;-79
2022/06/16 00:03:13;;;;;;;;;;;;;;;17.24;59.90;101922.69;5056346;28;19920;-80
2022/06/16 00:05:40;;;;;;;;;;;;;;;17.19;60.09;101925.19;5056045;28;19967;-79
2022/06/16 00:08:05;;;;;;;;;;;;;;;17.15;60.34;101918.47;5056466;28;19921;-80
2022/06/16 00:10:31;;;;;;;;;;;;;;;17.13;60.22;101915.09;5055862;28;19932;-79
2022/06/16 00:12:56;;;;;;;;;;;;;;;17.08;60.50;101928.47;5056159;28;19941;-79
2022/06/16 00:15:23;;;;;;;;;;;;;;;17.08;60.41;101923.84;5056328;28;19913;-78
2022/06/16 00:17:49;;;;;;;;;;;;;;;17.08;60.39;101921.13;5053546;28;20087;-80
2022/06/16 00:20:14;;;;;;;;;;;;;;;17.01;60.35;101927.56;5056884;28;19940;-79
2022/06/16 00:22:39;;;;;;;;;;;;;;;16.98;60.61;101923.38;5056578;28;19913;-79
2022/06/16 00:25:05;;;;;;;;;;;;;;;16.89;60.92;101921.84;5056165;28;19940;-79
2022/06/16 00:27:30;;;;;;;;;;;;;;;16.87;61.12;101924.75;5050203;28;19952;-78
2022/06/16 00:29:56;;;;;;;;;;;;;;;16.81;61.25;101928.25;5050077;28;19936;-79
2022/06/16 00:32:21;;;;;;;;;;;;;;;16.77;61.36;101932.44;5053999;28;19929;-79
2022/06/16 00:34:46;;;;;;;;;;;;;;;16.71;61.86;101933.16;5054673;28;19978;-78
2022/06/16 00:37:11;;;;;;;;;;;;;;;16.76;61.29;101932.59;5055118;28;19913;-81
2022/06/16 00:39:37;;;;;;;;;;;;;;;16.72;61.27;101932.16;5055541;28;19926;-80
2022/06/16 00:42:09;;;;;;;;;;;;;;;16.68;61.38;101934.38;5038439;28;19939;-81
2022/06/16 00:44:34;;;;;;;;;;;;;;;16.62;61.52;101939.78;5055910;28;19909;-78
2022/06/16 00:46:59;;;;;;;;;;;;;;;16.57;61.84;101936.81;5055712;28;19929;-78
2022/06/16 00:49:24;;;;;;;;;;;;;;;16.54;61.78;101940.75;5053137;28;19921;-78
2022/06/16 00:51:50;;;;;;;;;;;;;;;16.50;61.68;101944.06;5051960;28;19956;-78
2022/06/16 00:54:45;;;;;;;;;;;;;;;16.46;61.71;101941.72;5052916;28;19921;-78
2022/06/16 00:57:14;;;;;;;;;;;;;;;16.41;61.89;101937.91;5043304;28;20031;-78
2022/06/16 00:59:40;;;;;;;;;;;;;;;16.39;61.82;101946.25;5051109;28;19905;-80
2022/06/16 01:02:08;;;;;;;;;;;;;;;16.34;62.11;101951.41;5053166;28;19972;-78
2022/06/16 01:04:52;;;;;;;;;;;;;;;16.30;62.04;101947.41;5052097;28;19925;-78
2022/06/16 01:07:18;;;;;;;;;;;;;;;16.25;62.25;101941.72;5047965;28;19921;-80
2022/06/16 01:09:43;;;;;;;;;;;;;;;16.21;62.31;101943.97;5049546;28;19936;-78
2022/06/16 01:15:13;;;;;;;;;;;;;;;16.18;62.53;101943.50;5032876;28;19971;-80
2022/06/16 01:17:41;;;;;;;;;;;;;;;16.13;62.64;101935.94;5050778;28;19913;-78
2022/06/16 01:20:06;;;;;;;;;;;;;;;16.09;62.70;101950.09;5054468;28;19909;-81
2022/06/16 01:22:31;;;;;;;;;;;;;;;16.00;62.80;101939.34;5053759;28;19983;-79
2022/06/16 01:25:13;;;;;;;;;;;;;;;15.87;63.08;101941.91;5051855;28;19984;-78
2022/06/16 01:27:42;;;;;;;;;;;;;;;15.89;63.46;101945.28;5051016;28;19913;-77
2022/06/16 01:30:17;;;;;;;;;;;;;;;15.88;63.45;101949.03;5056689;28;19932;-78
2022/06/16 01:32:49;;;;;;;;;;;;;;;15.85;63.60;101953.97;5059000;28;19929;-81
2022/06/16 01:35:44;;;;;;;;;;;;;;;15.80;63.68;101957.28;5058620;28;19917;-79
2022/06/16 01:38:14;;;;;;;;;;;;;;;15.83;63.75;101962.31;5054348;28;19951;-81
2022/06/16 01:40:47;;;;;;;;;;;;;;;15.74;63.79;101961.56;5057806;28;19924;-82
2022/06/16 01:43:12;;;;;;;;;;;;;;;15.73;63.87;101962.59;5060037;28;19928;-81
2022/06/16 01:45:37;;;;;;;;;;;;;;;15.71;63.87;101959.22;5059478;28;19909;-81
2022/06/16 01:48:03;;;;;;;;;;;;;;;15.72;63.80;101968.25;5059196;28;19936;-81
2022/06/16 01:50:29;;;;;;;;;;;;;;;15.68;64.01;101964.19;5057819;28;19913;-79
2022/06/16 01:52:56;;;;;;;;;;;;;;;15.66;63.96;101953.50;5057768;28;20036;-80
2022/06/16 01:55:25;;;;;;;;;;;;;;;15.63;63.98;101963.91;5058537;28;19972;-81
2022/06/16 01:58:09;;;;;;;;;;;;;;;15.59;64.17;101952.59;5056487;28;19909;-81
2022/06/16 02:00:34;;;;;;;;;;;;;;;15.50;64.11;101962.66;5048624;28;19912;-81
2022/06/16 02:03:07;;;;;;;;;;;;;;;15.40;64.50;101962.09;5057368;28;19921;-80
2022/06/16 02:05:40;;;;;;;;;;;;;;;15.39;64.46;101960.44;5056715;28;19937;-80
2022/06/16 02:08:09;;;;;;;;;;;;;;;15.37;64.56;101959.78;5056475;28;19924;-79
2022/06/16 02:10:36;;;;;;;;;;;;;;;15.34;64.60;101962.88;5057479;28;19979;-79
2022/06/16 02:13:04;;;;;;;;;;;;;;;15.30;64.33;101956.97;5049403;28;19922;-81
2022/06/16 02:15:46;;;;;;;;;;;;;;;15.19;64.55;101954.69;5053574;28;19960;-78
2022/06/16 02:18:13;;;;;;;;;;;;;;;15.17;64.90;101959.50;5057566;28;19921;-80
2022/06/16 02:20:44;;;;;;;;;;;;;;;15.10;64.94;101962.09;5058316;28;19909;-77
2022/06/16 02:23:10;;;;;;;;;;;;;;;15.04;65.33;101959.28;5059023;28;19909;-79
2022/06/16 02:25:35;;;;;;;;;;;;;;;15.04;65.48;101967.41;5058995;28;19924;-79
2022/06/16 02:28:00;;;;;;;;;;;;;;;14.98;65.79;101976.25;5058811;28;19921;-80
2022/06/16 02:30:26;;;;;;;;;;;;;;;14.95;66.46;101976.63;5057408;28;19913;-80
2022/06/16 02:35:23;;;;;;;;;;;;;;;14.93;66.45;101976.84;5083712;22;19925;-35
2022/06/16 02:38:01;;;;;;;;;;;;;;;14.99;66.51;101981.50;5075210;28;19925;-39
2022/06/16 02:40:29;;;;;;;;;;;;;;;15.00;66.34;101976.94;5092064;28;19935;-35
2022/06/16 02:42:57;;;;;;;;;;;;;;;14.98;66.39;101985.25;5082068;28;19972;-35
2022/06/16 02:45:25;;;;;;;;;;;;;;;14.98;66.31;101984.41;5093673;28;19980;-35
2022/06/16 02:47:58;;;;;;;;;;;;;;;15.02;65.90;101992.00;5093238;28;19974;-38
2022/06/16 02:50:42;;;;;;;;;;;;;;;14.97;65.77;101991.69;5089571;28;20681;-37
2022/06/16 02:53:11;;;;;;;;;;;;;;;14.90;66.28;101988.88;5075981;28;19980;-35
2022/06/16 02:55:43;;;;;;;;;;;;;;;14.92;66.39;101991.41;5079295;28;19909;-34
2022/06/16 02:58:09;;;;;;;;;;;;;;;14.86;66.69;101994.84;5070532;28;19921;-36
2022/06/16 03:00:36;;;;;;;;;;;;;;;14.92;66.30;101985.97;5072747;28;19920;-35
2022/06/16 03:03:16;;;;;;;;;;;;;;;14.97;65.98;101978.13;5078204;28;20315;-34
2022/06/16 03:05:41;;;;;;;;;;;;;;;14.90;66.00;101982.59;5090890;28;19908;-36
2022/06/16 03:08:06;;;;;;;;;;;;;;;14.81;66.43;101991.84;5082286;28;19988;-38
2022/06/16 03:10:50;;;;;;;;;;;;;;;14.80;66.59;101992.88;5095784;28;19932;-34
2022/06/16 03:13:15;;;;;;;;;;;;;;;14.76;66.63;102005.94;5074695;28;19920;-38
2022/06/16 03:15:41;;;;;;;;;;;;;;;14.77;66.78;102004.06;5076716;28;19920;-34
2022/06/16 03:18:06;;;;;;;;;;;;;;;14.71;66.57;102009.16;5089373;28;19925;-35
2022/06/16 03:20:31;;;;;;;;;;;;;;;14.60;67.22;102003.34;5074178;28;20026;-38
2022/06/16 03:22:56;;;;;;;;;;;;;;;14.56;67.16;102005.59;5075698;28;19929;-36
2022/06/16 03:25:22;;;;;;;;;;;;;;;14.62;67.36;102004.00;5075763;28;19909;-36
2022/06/16 03:27:47;;;;;;;;;;;;;;;14.62;67.50;102006.72;5080527;28;19919;-34
2022/06/16 03:30:12;;;;;;;;;;;;;;;14.69;67.30;102004.97;5084017;28;19928;-35
2022/06/16 03:32:38;;;;;;;;;;;;;;;14.71;67.36;102008.34;5076519;28;19971;-36
2022/06/16 03:35:03;;;;;;;;;;;;;;;14.76;67.69;102010.50;5084312;28;19913;-35
2022/06/16 03:37:28;;;;;;;;;;;;;;;14.84;66.54;102016.69;5094254;28;19950;-34
2022/06/16 03:39:53;;;;;;;;;;;;;;;14.87;66.76;102015.50;5077026;28;19913;-34
2022/06/16 03:42:19;;;;;;;;;;;;;;;14.95;66.29;102020.84;5078433;28;20003;-36
2022/06/16 03:44:44;;;;;;;;;;;;;;;14.98;66.14;102022.34;5089124;28;19915;-37
2022/06/16 03:47:09;;;;;;;;;;;;;;;15.05;64.96;102028.75;5082002;28;19924;-36
2022/06/16 03:49:34;;;;;;;;;;;;;;;15.06;64.75;102028.56;5077841;28;19947;-34
2022/06/16 03:51:59;;;;;;;;;;;;;;;15.13;63.99;102026.78;5091167;28;19977;-36
2022/06/16 03:54:25;;;;;;;;;;;;;;;15.15;63.02;102037.47;5093313;28;19917;-36
2022/06/16 03:56:50;;;;;;;;;;;;;;;15.14;63.26;102038.50;5089391;28;19955;-36
2022/06/16 03:59:21;;;;;;;;;;;;;;;15.11;62.98;102036.13;5080438;28;19978;-34
2022/06/16 04:01:46;;;;;;;;;;;;;;;15.11;63.01;102044.25;5086476;28;19923;-34
2022/06/16 04:04:11;;;;;;;;;;;;;;;15.08;62.97;102050.06;5083089;28;19920;-35
2022/06/16 04:06:36;;;;;;;;;;;;;;;15.08;63.53;102048.19;5073189;28;19960;-35
2022/06/16 04:09:02;;;;;;;;;;;;;;;15.08;64.52;102056.31;5073746;28;19919;-38
2022/06/16 04:11:28;;;;;;;;;;;;;;;15.10;63.45;102056.97;5061843;28;19952;-34
2022/06/16 04:14:07;;;;;;;;;;;;;;;15.16;63.78;102060.84;5068604;28;19912;-35
2022/06/16 04:16:34;;;;;;;;;;;;;;;15.24;63.37;102059.91;5074982;28;19925;-35
2022/06/16 04:18:59;;;;;;;;;;;;;;;15.26;63.16;102064.13;5074493;28;19925;-36
2022/06/16 04:21:24;;;;;;;;;;;;;;;15.36;63.16;102075.56;5078957;28;19919;-36
2022/06/16 04:23:50;;;;;;;;;;;;;;;15.56;60.40;102077.75;5093426;28;19908;-36
2022/06/16 04:26:15;;;;;;;;;;;;;;;15.59;60.31;102080.97;5092916;28;20011;-34
2022/06/16 04:28:40;;;;;;;;;;;;;;;15.62;59.61;102079.75;5085138;28;19984;-36
2022/06/16 04:31:05;;;;;;;;;;;;;;;15.62;59.95;102084.34;5076782;28;19916;-35
2022/06/16 04:33:30;;;;;;;;;;;;;;;15.59;59.58;102083.69;5078337;28;19978;-35
2022/06/16 04:35:56;;;;;;;;;;;;;;;15.60;60.15;102092.66;5011454;28;1770158;-35
2022/06/16 04:38:21;;;;;;;;;;;;;;;15.64;60.04;102098.53;5085042;28;19991;-36
2022/06/16 04:40:46;;;;;;;;;;;;;;;15.65;60.09;102102.97;5072768;28;19908;-35
2022/06/16 04:43:14;;;;;;;;;;;;;;;15.80;59.84;102110.13;5075405;28;19944;-34
2022/06/16 04:45:40;;;;;;;;;;;;;;;15.96;59.13;102103.69;5073309;28;19947;-35
2022/06/16 04:48:05;;;;;;;;;;;;;;;16.07;58.35;102104.25;5074719;28;20057;-34
2022/06/16 04:50:30;;;;;;;;;;;;;;;16.13;58.37;102108.91;5085834;28;19924;-34
2022/06/16 04:52:56;;;;;;;;;;;;;;;16.26;57.91;102113.69;5086742;28;20007;-38
2022/06/16 04:55:21;;;;;;;;;;;;;;;16.35;57.06;102124.28;5084516;28;19912;-33
2022/06/16 04:57:46;;;;;;;;;;;;;;;16.42;56.98;102127.91;5094164;28;20038;-35
2022/06/16 05:00:13;;;;;;;;;;;;;;;16.52;55.68;102132.22;5083009;28;19908;-35
2022/06/16 05:02:39;;;;;;;;;;;;;;;16.58;55.78;102134.16;5082034;28;19984;-34
2022/06/16 05:05:04;;;;;;;;;;;;;;;16.66;55.43;102136.78;5075392;28;19931;-36
2022/06/16 05:07:29;;;;;;;;;;;;;;;16.65;54.84;102135.09;5085580;28;19935;-36
2022/06/16 05:09:54;;;;;;;;;;;;;;;16.59;54.28;102138.59;5077833;28;19913;-36
2022/06/16 05:12:20;;;;;;;;;;;;;;;16.54;54.16;102139.16;5087998;28;20008;-36
2022/06/16 05:14:45;;;;;;;;;;;;;;;16.53;53.65;102140.16;5076950;28;19931;-35
2022/06/16 05:17:10;;;;;;;;;;;;;;;16.58;54.56;102142.31;5079334;28;19928;-36
2022/06/16 05:19:35;;;;;;;;;;;;;;;16.68;54.04;102148.31;5093222;28;19931;-35
2022/06/16 05:22:01;;;;;;;;;;;;;;;16.77;54.34;102149.03;5077714;28;19932;-34
2022/06/16 05:24:26;;;;;;;;;;;;;;;16.83;54.08;102154.59;5066789;28;19929;-34
2022/06/16 05:26:52;;;;;;;;;;;;;;;16.93;53.80;102158.84;5075316;28;19958;-34
2022/06/16 05:29:19;;;;;;;;;;;;;;;17.10;53.81;102149.44;5073987;28;19913;-35
2022/06/16 05:31:44;;;;;;;;;;;;;;;17.20;52.46;102154.56;5075521;28;19917;-34
2022/06/16 05:34:09;;;;;;;;;;;;;;;17.24;51.68;102148.53;5078587;28;19908;-35
2022/06/16 05:36:35;;;;;;;;;;;;;;;17.34;52.15;102140.88;5074003;28;19932;-34
2022/06/16 05:39:00;;;;;;;;;;;;;;;17.26;51.23;102138.28;5082052;28;19999;-33
2022/06/16 05:41:25;;;;;;;;;;;;;;;17.28;52.24;102138.94;5079509;28;19940;-36
2022/06/16 05:43:50;;;;;;;;;;;;;;;17.28;52.47;102138.94;5075535;28;20330;-33
2022/06/16 05:46:17;;;;;;;;;;;;;;;17.28;52.44;102140.84;5075330;28;19965;-34
2022/06/16 05:48:43;;;;;;;;;;;;;;;17.30;51.55;102155.09;5075204;28;19917;-34
2022/06/16 05:51:10;;;;;;;;;;;;;;;17.30;52.28;102145.03;5076782;28;19920;-34
2022/06/16 05:53:36;;;;;;;;;;;;;;;17.31;51.76;102157.59;5075087;28;19924;-35
2022/06/16 05:56:02;;;;;;;;;;;;;;;17.34;51.08;102161.81;5075101;28;19917;-35
2022/06/16 05:58:27;;;;;;;;;;;;;;;17.39;51.14;102172.97;5075558;28;20429;-33
2022/06/16 06:00:52;;;;;;;;;;;;;;;17.48;50.90;102165.50;5073482;28;19973;-33
2022/06/16 06:03:17;;;;;;;;;;;;;;;17.52;51.00;102161.34;5089771;28;19920;-33
2022/06/16 06:05:43;;;;;;;;;;;;;;;17.57;50.76;102156.16;5093397;28;19988;-35
2022/06/16 06:16:26;;;;;;;;;;;;;;;17.85;50.37;102160.81;5077898;28;19935;-35
2022/06/16 06:18:52;;;;;;;;;;;;;;;17.91;48.86;102165.47;5076631;28;19939;-34
2022/06/16 06:21:57;;;;;;;;;;;;;;;18.06;48.87;102163.50;5074286;28;19944;-37
2022/06/16 06:24:02;;;;;;;;;;;;;;;18.14;47.88;102157.88;5073676;28;19905;-35
2022/06/16 06:26:28;;;;;;;;;;;;;;;18.21;47.98;102164.19;5073922;28;19984;-35
2022/06/16 06:28:53;;;;;;;;;;;;;;;18.37;47.33;102168.47;5073548;28;19988;-35
2022/06/16 06:31:18;;;;;;;;;;;;;;;18.51;46.60;102158.50;5073296;28;19976;-34
2022/06/16 06:33:43;;;;;;;;;;;;;;;18.63;46.84;102165.03;5072496;28;19928;-35
2022/06/16 06:36:08;;;;;;;;;;;;;;;18.63;46.32;102165.03;5074155;28;19917;-35
2022/06/16 06:38:34;;;;;;;;;;;;;;;18.65;47.55;102165.69;5073653;28;19967;-37
2022/06/16 06:40:59;;;;;;;;;;;;;;;18.79;46.79;102163.03;5073241;28;19916;-34
2022/06/16 06:43:25;;;;;;;;;;;;;;;18.99;47.30;102169.41;5073046;28;19928;-33
2022/06/16 06:45:50;;;;;;;;;;;;;;;19.04;45.66;102171.53;5072810;28;19916;-33
2022/06/16 06:48:16;;;;;;;;;;;;;;;19.18;45.83;102170.50;5073845;28;19921;-35
2022/06/16 06:50:41;;;;;;;;;;;;;;;19.21;45.20;102166.50;5074185;28;19917;-38
2022/06/16 06:53:07;;;;;;;;;;;;;;;19.30;45.32;102178.94;5074084;28;19917;-37
2022/06/16 06:55:32;;;;;;;;;;;;;;;19.42;44.22;102174.53;5073403;28;19916;-34
2022/06/16 06:57:57;;;;;;;;;;;;;;;19.60;45.17;102178.53;5073341;28;19917;-34
2022/06/16 07:00:23;;;;;;;;;;;;;;;20.10;44.30;102178.97;5073262;28;20166;-34
2022/06/16 07:02:48;;;;;;;;;;;;;;;20.76;42.82;102184.25;5073676;28;19956;-37
2022/06/16 07:05:14;;;;;;;;;;;;;;;21.04;42.36;102191.28;5073922;28;19916;-33
2022/06/16 07:07:39;;;;;;;;;;;;;;;21.95;41.40;102192.75;5073084;28;19971;-33
2022/06/16 07:10:05;;;;;;;;;;;;;;;22.74;38.56;102195.72;5074416;28;20175;-35
2022/06/16 07:12:30;;;;;;;;;;;;;;;23.81;36.12;102192.28;5074876;28;19908;-35
2022/06/16 07:14:55;;;;;;;;;;;;;;;24.34;34.69;102196.81;5074001;28;19919;-34
2022/06/16 07:17:21;;;;;;;;;;;;;;;24.98;33.81;102199.53;5074837;28;19913;-37
2022/06/16 07:19:46;;;;;;;;;;;;;;;25.45;32.88;102202.09;5075287;28;20010;-35
2022/06/16 07:22:12;;;;;;;;;;;;;;;26.31;30.81;102210.13;5075470;28;20164;-36
2022/06/16 07:24:37;;;;;;;;;;;;;;;26.87;29.67;102210.84;5075198;28;19912;-38
2022/06/16 07:27:02;;;;;;;;;;;;;;;27.21;29.84;102215.41;5072851;28;19992;-35
2022/06/16 07:29:28;;;;;;;;;;;;;;;27.45;30.70;102215.91;5075144;28;19904;-36
2022/06/16 07:31:53;;;;;;;;;;;;;;;27.50;28.38;102216.78;5074459;28;19984;-35
2022/06/16 07:34:18;;;;;;;;;;;;;;;27.96;28.68;102221.88;5073475;28;19951;-37
2022/06/16 07:36:43;;;;;;;;;;;;;;;27.96;27.88;102225.50;5073488;28;19943;-35
2022/06/16 07:39:09;;;;;;;;;;;;;;;28.61;26.63;102228.13;5072592;28;19979;-36
2022/06/16 07:41:37;;;;;;;;;;;;;;;28.39;26.20;102239.34;5073216;28;19917;-36
2022/06/16 07:44:03;;;;;;;;;;;;;;;28.05;27.29;102236.91;5073823;28;19916;-35
2022/06/16 07:46:28;;;;;;;;;;;;;;;28.55;26.38;102235.56;5073186;28;19917;-36
2022/06/16 07:48:53;;;;;;;;;;;;;;;27.49;28.43;102239.16;5072845;28;19917;-35
2022/06/16 07:51:19;;;;;;;;;;;;;;;27.24;27.95;102235.06;5073606;28;19921;-35
2022/06/16 07:53:45;;;;;;;;;;;;;;;27.75;27.05;102243.84;5073225;28;19936;-35
2022/06/16 07:56:10;;;;;;;;;;;;;;;26.92;28.54;102249.59;5073479;28;19917;-38
2022/06/16 07:58:35;;;;;;;;;;;;;;;26.79;29.63;102241.69;5072617;28;19944;-36
2022/06/16 08:01:00;;;;;;;;;;;;;;;27.65;27.55;102243.75;5073063;28;19923;-37
2022/06/16 08:03:29;;;;;;;;;;;;;;;27.93;28.24;102242.63;5073287;28;19912;-38
2022/06/16 08:05:55;;;;;;;;;;;;;;;29.27;26.39;102227.53;5074256;28;19905;-35
2022/06/16 08:08:23;;;;;;;;;;;;;;;29.73;25.12;102235.91;5074342;28;19928;-34
2022/06/16 08:10:48;;;;;;;;;;;;;;;29.77;24.28;102242.56;5074110;28;19943;-35
2022/06/16 08:13:13;;;;;;;;;;;;;;;28.85;25.56;102239.56;5074030;28;19956;-35
2022/06/16 08:15:39;;;;;;;;;;;;;;;28.77;25.94;102231.78;5073776;28;20040;-35
2022/06/16 08:18:04;;;;;;;;;;;;;;;29.89;24.83;102243.13;5073894;28;19928;-36
2022/06/16 08:20:29;;;;;;;;;;;;;;;29.57;25.05;102239.75;5073459;28;19936;-35
2022/06/16 08:22:55;;;;;;;;;;;;;;;29.26;26.50;102245.28;5072913;28;19917;-36
2022/06/16 08:25:20;;;;;;;;;;;;;;;29.14;26.19;102231.66;5073983;28;19919;-35
2022/06/16 08:27:46;;;;;;;;;;;;;;;28.08;26.54;102241.91;5073872;28;20086;-37
2022/06/16 08:30:12;;;;;;;;;;;;;;;27.98;26.59;102247.34;5073316;28;19917;-35
2022/06/16 08:32:38;;;;;;;;;;;;;;;27.47;27.58;102242.19;5072873;28;19905;-37
2022/06/16 08:35:03;;;;;;;;;;;;;;;28.95;26.18;102239.59;5072492;28;19921;-34
2022/06/16 08:37:29;;;;;;;;;;;;;;;28.73;26.00;102242.59;5073508;28;19984;-35
2022/06/16 08:39:54;;;;;;;;;;;;;;;30.02;24.80;102251.97;5071991;28;20550;-34
2022/06/16 08:42:24;;;;;;;;;;;;;;;30.20;24.82;102254.16;5071741;28;19988;-36
2022/06/16 08:44:50;;;;;;;;;;;;;;;30.48;26.23;102254.69;5069381;28;20391;-37
2022/06/16 08:47:23;;;;;;;;;;;;;;;30.36;24.86;102253.06;5070542;28;19992;-33
2022/06/16 08:49:54;;;;;;;;;;;;;;;28.79;25.97;102258.13;5068960;28;19979;-37
2022/06/16 08:52:21;;;;;;;;;;;;;;;28.48;27.53;102256.28;5069831;28;19916;-36
2022/06/16 08:54:56;;;;;;;;;;;;;;;29.71;25.83;102258.38;5069361;28;19915;-37
2022/06/16 08:57:28;;;;;;;;;;;;;;;30.04;24.47;102249.75;5070344;28;19916;-36
2022/06/16 08:59:54;;;;;;;;;;;;;;;29.38;25.49;102242.22;5069457;28;19917;-37
2022/06/16 09:02:26;;;;;;;;;;;;;;;29.38;25.30;102251.38;5069471;28;19917;-35
2022/06/16 09:04:56;;;;;;;;;;;;;;;29.64;25.26;102257.81;5069838;28;19932;-37
2022/06/16 09:07:27;;;;;;;;;;;;;;;30.31;24.68;102258.63;5070008;28;19917;-35
2022/06/16 09:10:15;;;;;;;;;;;;;;;29.87;25.73;102256.44;5070320;28;19904;-34
2022/06/16 09:12:58;;;;;;;;;;;;;;;29.89;25.42;102251.44;5070007;28;20504;-36
2022/06/16 09:15:27;;;;;;;;;;;;;;;30.03;25.69;102257.25;5070626;28;19917;-34
2022/06/16 09:18:12;;;;;;;;;;;;;;;30.86;23.72;102257.91;5070598;28;19917;-35
2022/06/16 09:20:46;;;;;;;;;;;;;;;30.14;24.75;102261.69;5070500;28;19939;-36
2022/06/16 09:23:32;;;;;;;;;;;;;;;30.50;24.72;102260.81;5071092;28;19956;-35
2022/06/16 09:26:09;;;;;;;;;;;;;;;31.31;23.75;102256.00;5068127;28;19939;-36
2022/06/16 09:28:37;;;;;;;;;;;;;;;31.21;24.24;102256.91;5068915;28;19923;-34
2022/06/16 09:31:04;;;;;;;;;;;;;;;32.27;22.75;102256.34;5071125;28;19971;-34
2022/06/16 09:33:31;;;;;;;;;;;;;;;31.97;23.36;102263.91;5070009;28;19937;-34
2022/06/16 09:36:02;;;;;;;;;;;;;;;30.46;24.13;102259.69;5069367;28;19932;-34
2022/06/16 09:38:36;;;;;;;;;;;;;;;30.15;25.39;102257.81;5071316;28;19921;-34
2022/06/16 09:41:04;;;;;;;;;;;;;;;30.81;24.35;102254.06;5072739;28;19912;-35
2022/06/16 09:43:35;;;;;;;;;;;;;;;29.82;24.81;102263.94;5071215;28;20127;-38
2022/06/16 09:46:05;;;;;;;;;;;;;;;29.84;25.28;102264.50;5070740;28;19959;-35
2022/06/16 09:48:35;;;;;;;;;;;;;;;29.69;25.76;102260.59;5071774;28;19992;-36
2022/06/16 09:51:08;;;;;;;;;;;;;;;28.66;25.81;102262.22;5072824;28;19929;-36
2022/06/16 09:53:48;;;;;;;;;;;;;;;28.30;27.54;102261.13;5074301;28;19917;-36
2022/06/16 09:56:17;;;;;;;;;;;;;;;30.00;25.07;102262.53;5075454;28;19964;-35
2022/06/16 09:58:56;;;;;;;;;;;;;;;29.78;24.95;102263.66;5073899;28;19917;-34
2022/06/16 10:01:27;;;;;;;;;;;;;;;30.36;24.84;102269.75;5074479;28;19980;-34
2022/06/16 10:03:54;;;;;;;;;;;;;;;29.80;24.77;102260.59;5074195;28;19932;-34
2022/06/16 10:06:19;;;;;;;;;;;;;;;29.42;25.78;102273.88;5074214;28;19948;-36
2022/06/16 10:08:53;;;;;;;;;;;;;;;30.21;24.44;102272.50;5075022;28;19967;-34
2022/06/16 10:11:26;;;;;;;;;;;;;;;31.54;23.56;102265.59;5075541;28;19917;-34
2022/06/16 10:14:04;;;;;;;;;;;;;;;32.39;22.07;102270.72;5075531;28;19938;-38
2022/06/16 10:16:36;;;;;;;;;;;;;;;32.83;21.85;102269.63;5074433;28;19916;-34
2022/06/16 10:19:02;;;;;;;;;;;;;;;32.65;21.75;102274.06;5072322;28;19917;-36
2022/06/16 10:21:27;;;;;;;;;;;;;;;31.73;22.98;102282.44;5073327;28;19932;-35
2022/06/16 10:23:54;;;;;;;;;;;;;;;31.40;22.97;102271.00;5072678;28;19932;-36
2022/06/16 10:26:19;;;;;;;;;;;;;;;31.76;23.55;102271.56;5071750;28;19990;-34
2022/06/16 10:28:50;;;;;;;;;;;;;;;31.67;23.13;102276.91;5072215;28;20102;-37
2022/06/16 10:31:17;;;;;;;;;;;;;;;32.20;21.82;102283.72;5072159;28;19980;-34
2022/06/16 10:33:53;;;;;;;;;;;;;;;31.31;23.49;102279.09;5071873;28;20197;-36
2022/06/16 10:36:19;;;;;;;;;;;;;;;30.79;24.01;102277.66;5074354;28;20118;-35
2022/06/16 10:38:45;;;;;;;;;;;;;;;31.41;23.87;102275.44;5072260;28;20000;-35
2022/06/16 10:41:22;;;;;;;;;;;;;;;31.38;23.74;102274.06;5073368;28;19924;-37
2022/06/16 10:43:47;;;;;;;;;;;;;;;32.03;23.06;102276.63;5072395;28;19928;-35
2022/06/16 10:46:36;;;;;;;;;;;;;;;31.75;22.80;102286.59;5071235;28;19917;-35
2022/06/16 10:49:04;;;;;;;;;;;;;;;32.04;23.13;102281.06;5069342;28;19928;-34
2022/06/16 10:51:29;;;;;;;;;;;;;;;32.10;22.85;102279.09;5072645;28;19908;-34
2022/06/16 10:54:01;;;;;;;;;;;;;;;32.26;22.82;102274.19;5072878;28;19992;-37
2022/06/16 10:56:27;;;;;;;;;;;;;;;32.27;22.22;102284.22;5071335;28;19917;-35
2022/06/16 10:59:12;;;;;;;;;;;;;;;31.20;23.59;102272.75;5074033;28;19924;-34
2022/06/16 11:01:39;;;;;;;;;;;;;;;31.66;22.58;102280.00;5072901;28;19963;-35
2022/06/16 11:04:25;;;;;;;;;;;;;;;31.85;23.43;102280.13;5072401;28;19943;-33
2022/06/16 11:06:52;;;;;;;;;;;;;;;30.72;24.28;102266.84;5072175;28;19917;-34
2022/06/16 11:09:27;;;;;;;;;;;;;;;30.30;24.93;102272.78;5072232;28;19921;-35
2022/06/16 11:11:54;;;;;;;;;;;;;;;30.82;24.25;102269.59;5071729;28;19921;-35
2022/06/16 11:14:26;;;;;;;;;;;;;;;31.41;23.33;102262.38;5072607;28;19921;-34
2022/06/16 11:16:53;;;;;;;;;;;;;;;30.77;24.97;102258.47;5073010;28;19917;-34
2022/06/16 11:19:39;;;;;;;;;;;;;;;31.80;24.27;102252.31;5073862;28;19921;-39
2022/06/16 11:22:06;;;;;;;;;;;;;;;32.57;23.17;102244.91;5072902;28;19909;-35
2022/06/16 11:24:31;;;;;;;;;;;;;;;33.06;22.76;102250.41;5072769;28;19912;-35
2022/06/16 11:27:23;;;;;;;;;;;;;;;32.96;22.22;102252.16;5073894;28;19940;-36
2022/06/16 11:29:48;;;;;;;;;;;;;;;32.44;22.18;102259.50;5072277;28;19921;-35
2022/06/16 11:32:15;;;;;;;;;;;;;;;31.89;23.52;102256.97;5073204;28;19943;-38
2022/06/16 11:34:41;;;;;;;;;;;;;;;32.44;23.63;102269.81;5074000;28;19921;-34
2022/06/16 11:37:11;;;;;;;;;;;;;;;32.55;22.80;102276.97;5072447;28;19931;-38
2022/06/16 11:39:36;;;;;;;;;;;;;;;30.83;25.17;102262.09;5072020;28;19920;-35
2022/06/16 11:42:01;;;;;;;;;;;;;;;31.38;24.41;102276.00;5071944;28;19917;-35
2022/06/16 11:44:52;;;;;;;;;;;;;;;31.77;23.86;102289.09;5071847;28;19916;-36
2022/06/16 11:47:37;;;;;;;;;;;;;;;31.85;24.53;102282.91;5070789;28;19917;-35
2022/06/16 11:50:11;;;;;;;;;;;;;;;32.24;23.19;102299.56;5071549;28;19913;-34
2022/06/16 11:52:48;;;;;;;;;;;;;;;32.24;23.94;102295.94;5070944;28;19917;-37
2022/06/16 11:55:14;;;;;;;;;;;;;;;32.12;23.66;102291.59;5071365;28;19939;-34
2022/06/16 11:57:54;;;;;;;;;;;;;;;32.35;23.13;102291.91;5072439;28;19980;-36
2022/06/16 12:00:46;;;;;;;;;;;;;;;32.51;23.09;102281.47;5071765;28;19905;-37
2022/06/16 12:03:14;;;;;;;;;;;;;;;32.65;22.97;102306.66;5070503;28;19917;-36
2022/06/16 12:05:46;;;;;;;;;;;;;;;31.28;23.21;102294.41;5072051;28;19921;-35
2022/06/16 12:08:14;;;;;;;;;;;;;;;30.63;24.87;102290.78;5073035;28;19985;-35
2022/06/16 12:10:42;;;;;;;;;;;;;;;29.97;25.70;102295.31;5073310;28;19924;-34
2022/06/16 12:13:26;;;;;;;;;;;;;;;29.95;26.45;102283.63;5071738;28;19955;-35
2022/06/16 12:15:54;;;;;;;;;;;;;;;29.91;26.50;102284.47;5071329;28;19913;-37
2022/06/16 12:18:36;;;;;;;;;;;;;;;30.21;25.23;102282.78;5072986;28;19916;-37
2022/06/16 12:21:01;;;;;;;;;;;;;;;30.52;25.92;102291.94;5055604;28;19931;-35
2022/06/16 12:23:32;;;;;;;;;;;;;;;31.25;25.32;102294.13;5071801;28;19948;-37
2022/06/16 12:26:04;;;;;;;;;;;;;;;31.31;24.99;102289.38;5071308;28;20002;-34
2022/06/16 12:28:45;;;;;;;;;;;;;;;31.53;24.75;102298.16;5070131;28;19917;-35
2022/06/16 12:31:12;;;;;;;;;;;;;;;31.37;25.01;102299.38;5071477;28;19975;-35
2022/06/16 12:33:40;;;;;;;;;;;;;;;31.53;24.70;102295.38;5071541;28;19908;-34
2022/06/16 12:36:12;;;;;;;;;;;;;;;31.65;24.76;102290.31;5072143;28;19924;-34
2022/06/16 12:38:58;;;;;;;;;;;;;;;31.68;24.94;102278.59;5071659;28;19940;-36
2022/06/16 12:41:25;;;;;;;;;;;;;;;31.67;24.55;102284.44;5071389;28;19905;-35
2022/06/16 12:44:13;;;;;;;;;;;;;;;31.26;25.42;102274.38;5072585;28;19917;-37
2022/06/16 12:46:47;;;;;;;;;;;;;;;31.39;25.40;102277.69;5069359;28;20016;-34
2022/06/16 12:49:14;;;;;;;;;;;;;;;31.48;24.27;102278.72;5072257;28;19921;-36
2022/06/16 12:51:46;;;;;;;;;;;;;;;31.58;24.78;102278.66;5071781;28;19921;-37
2022/06/16 12:54:12;;;;;;;;;;;;;;;31.52;24.67;102279.81;5071424;28;19916;-35
2022/06/16 12:56:58;;;;;;;;;;;;;;;31.42;25.33;102280.72;5069882;28;20000;-36